Terminal Aerodrome Forecast
Issued by NWS

Home | Current Version | Previous Version | Graphics & Text | Print | Product List | Glossary On
Versions: 1 2 3 4 5 6 7 8 9 10 11 12 13 14 15 16 17 18
000
FTUS43 KABR 271116 AAA
TAFATY
TAF AMD
KATY 271116Z 2711/2806 16010KT P6SM SCT015 BKN200
     FM271800 13010KT P6SM SCT040 BKN250
     FM280100 09006KT P6SM VCTS SCT060CB OVC100=

USA.gov is the U.S. government's official web portal to all federal, state and local government web resources and services.